sensor_id;sensor_type;location;lat;lon;timestamp;P1;durP1;ratioP1;P2;durP2;ratioP2
21416;SDS011;10869;52.238;10.716;2024-01-15T00:00:55;33.47;;;18.20;;
21416;SDS011;10869;52.238;10.716;2024-01-15T00:03:24;29.27;;;17.80;;
21416;SDS011;10869;52.238;10.716;2024-01-15T00:05:53;28.77;;;17.00;;
21416;SDS011;10869;52.238;10.716;2024-01-15T00:08:21;31.80;;;17.63;;
21416;SDS011;10869;52.238;10.716;2024-01-15T00:13:34;32.10;;;17.70;;
21416;SDS011;10869;52.238;10.716;2024-01-15T00:16:00;30.30;;;17.97;;
21416;SDS011;10869;52.238;10.716;2024-01-15T00:18:25;34.53;;;19.60;;
21416;SDS011;10869;52.238;10.716;2024-01-15T00:20:51;30.07;;;18.10;;
21416;SDS011;10869;52.238;10.716;2024-01-15T00:23:17;32.17;;;18.57;;
21416;SDS011;10869;52.238;10.716;2024-01-15T00:25:42;32.47;;;17.13;;
21416;SDS011;10869;52.238;10.716;2024-01-15T00:28:08;27.73;;;17.10;;
21416;SDS011;10869;52.238;10.716;2024-01-15T00:30:34;33.73;;;18.70;;
21416;SDS011;10869;52.238;10.716;2024-01-15T00:33:00;31.83;;;18.40;;
21416;SDS011;10869;52.238;10.716;2024-01-15T00:35:25;31.00;;;17.33;;
21416;SDS011;10869;52.238;10.716;2024-01-15T00:37:51;36.07;;;18.93;;
21416;SDS011;10869;52.238;10.716;2024-01-15T00:40:17;28.97;;;17.83;;
21416;SDS011;10869;52.238;10.716;2024-01-15T00:42:43;31.17;;;17.53;;
21416;SDS011;10869;52.238;10.716;2024-01-15T00:45:09;31.67;;;18.23;;
21416;SDS011;10869;52.238;10.716;2024-01-15T00:47:35;31.20;;;18.13;;
21416;SDS011;10869;52.238;10.716;2024-01-15T00:50:00;34.10;;;18.27;;
21416;SDS011;10869;52.238;10.716;2024-01-15T00:55:49;29.63;;;17.27;;
21416;SDS011;10869;52.238;10.716;2024-01-15T00:58:14;30.13;;;17.07;;
21416;SDS011;10869;52.238;10.716;2024-01-15T01:00:41;30.70;;;16.90;;
21416;SDS011;10869;52.238;10.716;2024-01-15T01:03:07;31.07;;;16.30;;
21416;SDS011;10869;52.238;10.716;2024-01-15T01:05:34;35.03;;;17.23;;
21416;SDS011;10869;52.238;10.716;2024-01-15T01:08:00;33.63;;;16.53;;
21416;SDS011;10869;52.238;10.716;2024-01-15T01:10:26;29.63;;;15.60;;
21416;SDS011;10869;52.238;10.716;2024-01-15T01:12:52;26.17;;;15.20;;
21416;SDS011;10869;52.238;10.716;2024-01-15T01:15:18;30.73;;;16.40;;
21416;SDS011;10869;52.238;10.716;2024-01-15T01:17:45;24.47;;;14.87;;
21416;SDS011;10869;52.238;10.716;2024-01-15T01:20:11;24.43;;;13.67;;
21416;SDS011;10869;52.238;10.716;2024-01-15T01:22:37;23.33;;;13.83;;
21416;SDS011;10869;52.238;10.716;2024-01-15T01:25:03;25.50;;;13.23;;
21416;SDS011;10869;52.238;10.716;2024-01-15T01:27:29;23.07;;;12.07;;
21416;SDS011;10869;52.238;10.716;2024-01-15T01:29:55;24.60;;;11.50;;
21416;SDS011;10869;52.238;10.716;2024-01-15T01:32:20;22.93;;;11.73;;
21416;SDS011;10869;52.238;10.716;2024-01-15T01:34:46;22.20;;;11.53;;
21416;SDS011;10869;52.238;10.716;2024-01-15T01:37:12;20.50;;;10.77;;
21416;SDS011;10869;52.238;10.716;2024-01-15T01:39:39;18.33;;;10.77;;
21416;SDS011;10869;52.238;10.716;2024-01-15T01:42:06;23.80;;;11.17;;
21416;SDS011;10869;52.238;10.716;2024-01-15T01:44:32;20.50;;;11.10;;
21416;SDS011;10869;52.238;10.716;2024-01-15T01:47:01;20.77;;;10.80;;
21416;SDS011;10869;52.238;10.716;2024-01-15T01:49:28;21.30;;;11.37;;
21416;SDS011;10869;52.238;10.716;2024-01-15T01:51:57;21.37;;;11.47;;
21416;SDS011;10869;52.238;10.716;2024-01-15T01:54:25;19.10;;;10.23;;
21416;SDS011;10869;52.238;10.716;2024-01-15T01:56:54;22.37;;;9.93;;
21416;SDS011;10869;52.238;10.716;2024-01-15T01:59:20;22.50;;;10.80;;
21416;SDS011;10869;52.238;10.716;2024-01-15T02:01:48;21.60;;;11.40;;
21416;SDS011;10869;52.238;10.716;2024-01-15T02:04:15;20.73;;;10.93;;
21416;SDS011;10869;52.238;10.716;2024-01-15T02:06:42;19.50;;;10.30;;
21416;SDS011;10869;52.238;10.716;2024-01-15T02:09:08;19.67;;;9.40;;
21416;SDS011;10869;52.238;10.716;2024-01-15T02:11:35;18.97;;;10.87;;
21416;SDS011;10869;52.238;10.716;2024-01-15T02:14:01;19.40;;;10.23;;
21416;SDS011;10869;52.238;10.716;2024-01-15T02:16:27;22.30;;;11.00;;
21416;SDS011;10869;52.238;10.716;2024-01-15T02:18:53;21.23;;;9.47;;
21416;SDS011;10869;52.238;10.716;2024-01-15T02:21:19;24.87;;;10.00;;
21416;SDS011;10869;52.238;10.716;2024-01-15T02:23:45;17.37;;;9.63;;
21416;SDS011;10869;52.238;10.716;2024-01-15T02:26:10;19.80;;;8.10;;
21416;SDS011;10869;52.238;10.716;2024-01-15T02:28:37;21.03;;;9.23;;
21416;SDS011;10869;52.238;10.716;2024-01-15T02:31:03;16.77;;;8.43;;
21416;SDS011;10869;52.238;10.716;2024-01-15T02:33:28;23.50;;;8.67;;
21416;SDS011;10869;52.238;10.716;2024-01-15T02:35:54;19.23;;;9.37;;
21416;SDS011;10869;52.238;10.716;2024-01-15T02:38:20;22.63;;;7.43;;
21416;SDS011;10869;52.238;10.716;2024-01-15T02:40:46;22.00;;;7.67;;
21416;SDS011;10869;52.238;10.716;2024-01-15T02:43:12;18.37;;;6.90;;
21416;SDS011;10869;52.238;10.716;2024-01-15T02:45:38;15.80;;;6.73;;
21416;SDS011;10869;52.238;10.716;2024-01-15T02:48:04;20.40;;;6.67;;
21416;SDS011;10869;52.238;10.716;2024-01-15T02:50:30;16.30;;;5.93;;
21416;SDS011;10869;52.238;10.716;2024-01-15T02:52:56;15.77;;;6.33;;
21416;SDS011;10869;52.238;10.716;2024-01-15T02:55:22;17.30;;;5.87;;
21416;SDS011;10869;52.238;10.716;2024-01-15T02:57:48;21.17;;;5.60;;
21416;SDS011;10869;52.238;10.716;2024-01-15T03:00:13;17.40;;;5.33;;
21416;SDS011;10869;52.238;10.716;2024-01-15T03:02:40;15.77;;;5.27;;
21416;SDS011;10869;52.238;10.716;2024-01-15T03:05:12;19.27;;;4.80;;
21416;SDS011;10869;52.238;10.716;2024-01-15T03:07:37;19.47;;;5.27;;
21416;SDS011;10869;52.238;10.716;2024-01-15T03:10:04;14.27;;;5.73;;
21416;SDS011;10869;52.238;10.716;2024-01-15T03:12:31;16.07;;;4.50;;
21416;SDS011;10869;52.238;10.716;2024-01-15T03:14:57;19.53;;;5.10;;
21416;SDS011;10869;52.238;10.716;2024-01-15T03:17:22;21.53;;;4.60;;
21416;SDS011;10869;52.238;10.716;2024-01-15T03:19:48;15.27;;;4.53;;
21416;SDS011;10869;52.238;10.716;2024-01-15T03:22:15;15.07;;;4.17;;
21416;SDS011;10869;52.238;10.716;2024-01-15T03:24:41;16.87;;;4.53;;
21416;SDS011;10869;52.238;10.716;2024-01-15T03:27:07;15.63;;;3.83;;
21416;SDS011;10869;52.238;10.716;2024-01-15T03:29:33;13.60;;;4.20;;
21416;SDS011;10869;52.238;10.716;2024-01-15T03:31:59;17.10;;;4.13;;
21416;SDS011;10869;52.238;10.716;2024-01-15T03:34:24;20.00;;;4.00;;
21416;SDS011;10869;52.238;10.716;2024-01-15T03:36:50;13.17;;;3.97;;
21416;SDS011;10869;52.238;10.716;2024-01-15T03:39:16;20.43;;;4.17;;
21416;SDS011;10869;52.238;10.716;2024-01-15T03:41:41;13.47;;;4.57;;
21416;SDS011;10869;52.238;10.716;2024-01-15T03:44:07;18.83;;;3.93;;
21416;SDS011;10869;52.238;10.716;2024-01-15T03:46:33;15.97;;;4.00;;
21416;SDS011;10869;52.238;10.716;2024-01-15T03:48:59;16.80;;;4.03;;
21416;SDS011;10869;52.238;10.716;2024-01-15T03:51:25;16.90;;;4.47;;
21416;SDS011;10869;52.238;10.716;2024-01-15T03:54:04;16.53;;;3.87;;
21416;SDS011;10869;52.238;10.716;2024-01-15T03:56:31;19.77;;;4.93;;
21416;SDS011;10869;52.238;10.716;2024-01-15T04:02:19;14.63;;;3.63;;
21416;SDS011;10869;52.238;10.716;2024-01-15T04:04:45;17.63;;;4.50;;
21416;SDS011;10869;52.238;10.716;2024-01-15T04:07:10;14.63;;;3.10;;
21416;SDS011;10869;52.238;10.716;2024-01-15T04:09:36;11.70;;;3.93;;
21416;SDS011;10869;52.238;10.716;2024-01-15T04:12:02;17.20;;;4.30;;
21416;SDS011;10869;52.238;10.716;2024-01-15T04:14:28;13.47;;;3.50;;
21416;SDS011;10869;52.238;10.716;2024-01-15T04:16:54;22.80;;;4.43;;
21416;SDS011;10869;52.238;10.716;2024-01-15T04:19:20;18.07;;;3.93;;
21416;SDS011;10869;52.238;10.716;2024-01-15T04:21:45;15.53;;;4.27;;
21416;SDS011;10869;52.238;10.716;2024-01-15T04:24:11;15.60;;;3.87;;
21416;SDS011;10869;52.238;10.716;2024-01-15T04:26:37;18.10;;;4.13;;
21416;SDS011;10869;52.238;10.716;2024-01-15T04:29:02;21.73;;;3.87;;
21416;SDS011;10869;52.238;10.716;2024-01-15T04:31:28;29.10;;;5.03;;
21416;SDS011;10869;52.238;10.716;2024-01-15T04:33:54;17.27;;;4.27;;
21416;SDS011;10869;52.238;10.716;2024-01-15T04:36:20;14.53;;;3.83;;
21416;SDS011;10869;52.238;10.716;2024-01-15T04:38:45;22.23;;;4.20;;
21416;SDS011;10869;52.238;10.716;2024-01-15T04:41:12;14.73;;;3.93;;
21416;SDS011;10869;52.238;10.716;2024-01-15T04:43:38;16.83;;;4.47;;
21416;SDS011;10869;52.238;10.716;2024-01-15T04:46:07;12.50;;;3.47;;
21416;SDS011;10869;52.238;10.716;2024-01-15T04:48:33;19.43;;;5.03;;
21416;SDS011;10869;52.238;10.716;2024-01-15T04:50:59;17.77;;;4.20;;
21416;SDS011;10869;52.238;10.716;2024-01-15T04:53:25;20.33;;;4.50;;
21416;SDS011;10869;52.238;10.716;2024-01-15T04:55:51;18.57;;;4.17;;
21416;SDS011;10869;52.238;10.716;2024-01-15T04:58:17;10.90;;;3.50;;
21416;SDS011;10869;52.238;10.716;2024-01-15T05:00:43;16.80;;;4.13;;
21416;SDS011;10869;52.238;10.716;2024-01-15T05:03:08;13.97;;;4.33;;
21416;SDS011;10869;52.238;10.716;2024-01-15T05:05:34;14.50;;;2.90;;
21416;SDS011;10869;52.238;10.716;2024-01-15T05:08:00;25.40;;;5.60;;
21416;SDS011;10869;52.238;10.716;2024-01-15T05:10:26;17.40;;;4.30;;
21416;SDS011;10869;52.238;10.716;2024-01-15T05:12:52;21.47;;;4.67;;
21416;SDS011;10869;52.238;10.716;2024-01-15T05:15:17;19.13;;;4.13;;
21416;SDS011;10869;52.238;10.716;2024-01-15T05:17:43;12.50;;;3.27;;
21416;SDS011;10869;52.238;10.716;2024-01-15T05:20:09;13.87;;;4.10;;
21416;SDS011;10869;52.238;10.716;2024-01-15T05:22:35;20.03;;;4.10;;
21416;SDS011;10869;52.238;10.716;2024-01-15T05:25:01;15.67;;;4.07;;
21416;SDS011;10869;52.238;10.716;2024-01-15T05:27:26;20.60;;;4.10;;
21416;SDS011;10869;52.238;10.716;2024-01-15T05:29:52;14.90;;;3.90;;
21416;SDS011;10869;52.238;10.716;2024-01-15T05:32:18;16.80;;;4.37;;
21416;SDS011;10869;52.238;10.716;2024-01-15T05:34:43;17.43;;;3.53;;
21416;SDS011;10869;52.238;10.716;2024-01-15T05:37:09;20.97;;;3.97;;
21416;SDS011;10869;52.238;10.716;2024-01-15T05:39:35;12.83;;;4.30;;
21416;SDS011;10869;52.238;10.716;2024-01-15T05:42:01;17.33;;;5.83;;
21416;SDS011;10869;52.238;10.716;2024-01-15T05:44:26;26.37;;;6.73;;
21416;SDS011;10869;52.238;10.716;2024-01-15T05:46:53;20.37;;;4.90;;
21416;SDS011;10869;52.238;10.716;2024-01-15T05:49:18;14.70;;;3.97;;
21416;SDS011;10869;52.238;10.716;2024-01-15T05:51:44;19.20;;;3.90;;
21416;SDS011;10869;52.238;10.716;2024-01-15T05:54:10;35.73;;;6.33;;
21416;SDS011;10869;52.238;10.716;2024-01-15T05:56:36;20.63;;;4.00;;
21416;SDS011;10869;52.238;10.716;2024-01-15T05:59:01;18.87;;;4.67;;
21416;SDS011;10869;52.238;10.716;2024-01-15T06:01:27;24.27;;;4.10;;
21416;SDS011;10869;52.238;10.716;2024-01-15T06:03:53;20.03;;;4.43;;
21416;SDS011;10869;52.238;10.716;2024-01-15T06:06:21;19.93;;;5.10;;
21416;SDS011;10869;52.238;10.716;2024-01-15T06:08:47;18.40;;;3.83;;
21416;SDS011;10869;52.238;10.716;2024-01-15T06:11:13;17.60;;;4.07;;
21416;SDS011;10869;52.238;10.716;2024-01-15T06:13:39;21.77;;;4.23;;
21416;SDS011;10869;52.238;10.716;2024-01-15T06:16:14;14.93;;;3.33;;
21416;SDS011;10869;52.238;10.716;2024-01-15T06:18:45;16.97;;;4.47;;
21416;SDS011;10869;52.238;10.716;2024-01-15T06:21:11;12.67;;;3.67;;
21416;SDS011;10869;52.238;10.716;2024-01-15T06:23:39;14.87;;;4.83;;
21416;SDS011;10869;52.238;10.716;2024-01-15T06:26:05;15.03;;;3.37;;
21416;SDS011;10869;52.238;10.716;2024-01-15T06:28:31;12.13;;;3.90;;
21416;SDS011;10869;52.238;10.716;2024-01-15T06:30:57;11.87;;;3.87;;
21416;SDS011;10869;52.238;10.716;2024-01-15T06:33:23;12.70;;;4.43;;
21416;SDS011;10869;52.238;10.716;2024-01-15T06:35:50;21.63;;;4.27;;
21416;SDS011;10869;52.238;10.716;2024-01-15T06:38:16;17.20;;;4.37;;
21416;SDS011;10869;52.238;10.716;2024-01-15T06:40:42;22.03;;;5.50;;
21416;SDS011;10869;52.238;10.716;2024-01-15T06:43:14;18.80;;;5.57;;
21416;SDS011;10869;52.238;10.716;2024-01-15T06:45:42;16.83;;;4.93;;
21416;SDS011;10869;52.238;10.716;2024-01-15T06:48:11;25.70;;;6.30;;
21416;SDS011;10869;52.238;10.716;2024-01-15T06:50:41;15.90;;;5.90;;
21416;SDS011;10869;52.238;10.716;2024-01-15T06:53:10;17.53;;;6.10;;
21416;SDS011;10869;52.238;10.716;2024-01-15T06:55:37;31.00;;;6.87;;
21416;SDS011;10869;52.238;10.716;2024-01-15T06:58:04;13.90;;;5.67;;
21416;SDS011;10869;52.238;10.716;2024-01-15T07:00:30;17.20;;;5.20;;
21416;SDS011;10869;52.238;10.716;2024-01-15T07:02:55;16.07;;;5.43;;
21416;SDS011;10869;52.238;10.716;2024-01-15T07:05:22;17.77;;;5.97;;
21416;SDS011;10869;52.238;10.716;2024-01-15T07:07:48;22.10;;;5.97;;
21416;SDS011;10869;52.238;10.716;2024-01-15T07:10:14;16.57;;;5.23;;
21416;SDS011;10869;52.238;10.716;2024-01-15T07:12:44;19.43;;;5.50;;
21416;SDS011;10869;52.238;10.716;2024-01-15T07:15:10;18.17;;;5.17;;
21416;SDS011;10869;52.238;10.716;2024-01-15T07:17:36;17.87;;;5.20;;
21416;SDS011;10869;52.238;10.716;2024-01-15T07:20:06;15.10;;;5.03;;
21416;SDS011;10869;52.238;10.716;2024-01-15T07:22:35;15.97;;;4.73;;
21416;SDS011;10869;52.238;10.716;2024-01-15T07:25:02;18.67;;;6.27;;
21416;SDS011;10869;52.238;10.716;2024-01-15T07:27:30;22.30;;;5.80;;
21416;SDS011;10869;52.238;10.716;2024-01-15T07:29:56;13.63;;;5.57;;
21416;SDS011;10869;52.238;10.716;2024-01-15T07:32:23;14.23;;;4.83;;
21416;SDS011;10869;52.238;10.716;2024-01-15T07:34:49;18.07;;;4.63;;
21416;SDS011;10869;52.238;10.716;2024-01-15T07:37:15;13.00;;;4.97;;
21416;SDS011;10869;52.238;10.716;2024-01-15T07:39:40;16.13;;;4.63;;
21416;SDS011;10869;52.238;10.716;2024-01-15T07:42:06;20.73;;;6.30;;
21416;SDS011;10869;52.238;10.716;2024-01-15T07:44:32;22.00;;;6.43;;
21416;SDS011;10869;52.238;10.716;2024-01-15T07:47:02;18.60;;;6.63;;
21416;SDS011;10869;52.238;10.716;2024-01-15T07:52:53;21.07;;;7.03;;
21416;SDS011;10869;52.238;10.716;2024-01-15T07:55:19;25.70;;;7.93;;
21416;SDS011;10869;52.238;10.716;2024-01-15T07:57:44;21.17;;;7.70;;
21416;SDS011;10869;52.238;10.716;2024-01-15T08:00:11;24.70;;;7.40;;
21416;SDS011;10869;52.238;10.716;2024-01-15T08:02:37;22.13;;;7.20;;
21416;SDS011;10869;52.238;10.716;2024-01-15T08:05:03;20.60;;;7.53;;
21416;SDS011;10869;52.238;10.716;2024-01-15T08:10:53;21.97;;;6.77;;
21416;SDS011;10869;52.238;10.716;2024-01-15T08:13:19;18.93;;;6.77;;
21416;SDS011;10869;52.238;10.716;2024-01-15T08:15:45;18.37;;;7.00;;
21416;SDS011;10869;52.238;10.716;2024-01-15T08:18:11;25.57;;;6.10;;
21416;SDS011;10869;52.238;10.716;2024-01-15T08:24:00;15.83;;;6.20;;
21416;SDS011;10869;52.238;10.716;2024-01-15T08:26:27;19.33;;;5.13;;
21416;SDS011;10869;52.238;10.716;2024-01-15T08:32:16;13.27;;;5.80;;
21416;SDS011;10869;52.238;10.716;2024-01-15T08:38:04;18.93;;;5.93;;
21416;SDS011;10869;52.238;10.716;2024-01-15T08:40:30;19.80;;;6.33;;
21416;SDS011;10869;52.238;10.716;2024-01-15T08:46:18;16.13;;;5.70;;
21416;SDS011;10869;52.238;10.716;2024-01-15T08:48:44;19.20;;;5.87;;
21416;SDS011;10869;52.238;10.716;2024-01-15T08:51:10;16.23;;;6.77;;
21416;SDS011;10869;52.238;10.716;2024-01-15T08:53:36;15.90;;;6.03;;
21416;SDS011;10869;52.238;10.716;2024-01-15T08:56:02;20.97;;;7.60;;
21416;SDS011;10869;52.238;10.716;2024-01-15T08:58:34;17.30;;;5.97;;
21416;SDS011;10869;52.238;10.716;2024-01-15T09:01:00;16.47;;;7.40;;
21416;SDS011;10869;52.238;10.716;2024-01-15T09:03:26;15.73;;;6.60;;
21416;SDS011;10869;52.238;10.716;2024-01-15T09:05:55;17.47;;;6.30;;
21416;SDS011;10869;52.238;10.716;2024-01-15T09:08:21;18.00;;;7.23;;
21416;SDS011;10869;52.238;10.716;2024-01-15T09:10:46;15.83;;;6.20;;
21416;SDS011;10869;52.238;10.716;2024-01-15T09:13:12;18.63;;;6.43;;
21416;SDS011;10869;52.238;10.716;2024-01-15T09:15:38;15.73;;;6.03;;
21416;SDS011;10869;52.238;10.716;2024-01-15T09:18:04;18.30;;;7.00;;
21416;SDS011;10869;52.238;10.716;2024-01-15T09:20:30;15.27;;;6.73;;
21416;SDS011;10869;52.238;10.716;2024-01-15T09:22:56;14.77;;;6.57;;
21416;SDS011;10869;52.238;10.716;2024-01-15T09:25:22;20.53;;;6.47;;
21416;SDS011;10869;52.238;10.716;2024-01-15T09:27:47;15.30;;;6.03;;
21416;SDS011;10869;52.238;10.716;2024-01-15T09:30:13;15.40;;;5.63;;
21416;SDS011;10869;52.238;10.716;2024-01-15T09:32:39;21.00;;;5.37;;
21416;SDS011;10869;52.238;10.716;2024-01-15T09:35:05;14.60;;;6.13;;
21416;SDS011;10869;52.238;10.716;2024-01-15T09:37:31;15.47;;;5.47;;
21416;SDS011;10869;52.238;10.716;2024-01-15T09:39:57;16.83;;;5.83;;
21416;SDS011;10869;52.238;10.716;2024-01-15T09:42:29;11.00;;;4.37;;
21416;SDS011;10869;52.238;10.716;2024-01-15T09:44:55;18.60;;;4.67;;
21416;SDS011;10869;52.238;10.716;2024-01-15T09:50:45;12.73;;;5.30;;
21416;SDS011;10869;52.238;10.716;2024-01-15T09:56:33;15.00;;;4.10;;
21416;SDS011;10869;52.238;10.716;2024-01-15T09:58:58;14.07;;;4.73;;
21416;SDS011;10869;52.238;10.716;2024-01-15T10:01:25;15.63;;;4.57;;
21416;SDS011;10869;52.238;10.716;2024-01-15T10:03:54;12.20;;;4.40;;
21416;SDS011;10869;52.238;10.716;2024-01-15T10:06:21;13.40;;;4.80;;
21416;SDS011;10869;52.238;10.716;2024-01-15T10:08:48;13.77;;;4.33;;
21416;SDS011;10869;52.238;10.716;2024-01-15T10:11:15;11.57;;;4.00;;
21416;SDS011;10869;52.238;10.716;2024-01-15T10:13:44;13.30;;;4.30;;
21416;SDS011;10869;52.238;10.716;2024-01-15T10:16:13;13.97;;;4.90;;
21416;SDS011;10869;52.238;10.716;2024-01-15T10:18:39;13.90;;;4.60;;
21416;SDS011;10869;52.238;10.716;2024-01-15T10:21:08;16.30;;;4.30;;
21416;SDS011;10869;52.238;10.716;2024-01-15T10:23:33;16.30;;;3.67;;
21416;SDS011;10869;52.238;10.716;2024-01-15T10:26:03;16.83;;;4.90;;
21416;SDS011;10869;52.238;10.716;2024-01-15T10:28:29;12.80;;;3.97;;
21416;SDS011;10869;52.238;10.716;2024-01-15T10:30:57;15.40;;;3.67;;
21416;SDS011;10869;52.238;10.716;2024-01-15T10:33:26;14.30;;;3.97;;
21416;SDS011;10869;52.238;10.716;2024-01-15T10:35:55;9.50;;;3.83;;
21416;SDS011;10869;52.238;10.716;2024-01-15T10:38:26;20.10;;;3.97;;
21416;SDS011;10869;52.238;10.716;2024-01-15T10:44:13;13.73;;;3.17;;
21416;SDS011;10869;52.238;10.716;2024-01-15T10:50:01;16.40;;;3.90;;
21416;SDS011;10869;52.238;10.716;2024-01-15T10:52:27;14.20;;;3.50;;
21416;SDS011;10869;52.238;10.716;2024-01-15T10:54:54;10.67;;;3.70;;
21416;SDS011;10869;52.238;10.716;2024-01-15T10:57:21;15.93;;;3.83;;
21416;SDS011;10869;52.238;10.716;2024-01-15T10:59:48;21.37;;;4.80;;
21416;SDS011;10869;52.238;10.716;2024-01-15T11:02:14;9.67;;;3.30;;
21416;SDS011;10869;52.238;10.716;2024-01-15T11:04:40;11.87;;;3.33;;
21416;SDS011;10869;52.238;10.716;2024-01-15T11:07:06;19.03;;;3.80;;
21416;SDS011;10869;52.238;10.716;2024-01-15T11:12:56;9.30;;;3.57;;
21416;SDS011;10869;52.238;10.716;2024-01-15T11:15:22;9.97;;;2.70;;
21416;SDS011;10869;52.238;10.716;2024-01-15T11:17:57;8.77;;;2.50;;
21416;SDS011;10869;52.238;10.716;2024-01-15T11:20:31;11.57;;;3.03;;
21416;SDS011;10869;52.238;10.716;2024-01-15T11:22:57;6.77;;;2.27;;
21416;SDS011;10869;52.238;10.716;2024-01-15T11:25:24;10.73;;;2.70;;
21416;SDS011;10869;52.238;10.716;2024-01-15T11:28:01;9.80;;;2.63;;
21416;SDS011;10869;52.238;10.716;2024-01-15T11:30:27;6.83;;;2.23;;
21416;SDS011;10869;52.238;10.716;2024-01-15T11:32:53;9.40;;;2.70;;
21416;SDS011;10869;52.238;10.716;2024-01-15T11:35:18;13.83;;;3.13;;
21416;SDS011;10869;52.238;10.716;2024-01-15T11:40:24;14.73;;;3.50;;
21416;SDS011;10869;52.238;10.716;2024-01-15T11:43:03;13.93;;;3.70;;
21416;SDS011;10869;52.238;10.716;2024-01-15T11:45:30;10.67;;;3.70;;
21416;SDS011;10869;52.238;10.716;2024-01-15T11:50:34;12.70;;;3.17;;
21416;SDS011;10869;52.238;10.716;2024-01-15T11:55:34;9.63;;;3.10;;
21416;SDS011;10869;52.238;10.716;2024-01-15T11:58:07;16.17;;;3.37;;
21416;SDS011;10869;52.238;10.716;2024-01-15T12:00:44;12.00;;;2.97;;
21416;SDS011;10869;52.238;10.716;2024-01-15T12:06:34;10.57;;;2.93;;
21416;SDS011;10869;52.238;10.716;2024-01-15T12:09:07;9.40;;;2.50;;
21416;SDS011;10869;52.238;10.716;2024-01-15T12:11:34;11.50;;;2.70;;
21416;SDS011;10869;52.238;10.716;2024-01-15T12:14:04;12.40;;;2.93;;
21416;SDS011;10869;52.238;10.716;2024-01-15T12:16:29;13.30;;;3.63;;
21416;SDS011;10869;52.238;10.716;2024-01-15T12:18:55;8.80;;;2.30;;
21416;SDS011;10869;52.238;10.716;2024-01-15T12:21:21;13.60;;;2.40;;
21416;SDS011;10869;52.238;10.716;2024-01-15T12:23:47;13.27;;;2.47;;
21416;SDS011;10869;52.238;10.716;2024-01-15T12:26:13;9.03;;;2.10;;
21416;SDS011;10869;52.238;10.716;2024-01-15T12:28:39;8.37;;;2.20;;
21416;SDS011;10869;52.238;10.716;2024-01-15T12:31:08;13.47;;;4.57;;
21416;SDS011;10869;52.238;10.716;2024-01-15T12:33:34;9.90;;;2.70;;
21416;SDS011;10869;52.238;10.716;2024-01-15T12:35:59;8.70;;;2.83;;
21416;SDS011;10869;52.238;10.716;2024-01-15T12:38:25;13.10;;;2.77;;
21416;SDS011;10869;52.238;10.716;2024-01-15T12:40:53;10.23;;;2.40;;
21416;SDS011;10869;52.238;10.716;2024-01-15T12:43:19;10.73;;;3.00;;
21416;SDS011;10869;52.238;10.716;2024-01-15T12:45:48;6.77;;;2.43;;
21416;SDS011;10869;52.238;10.716;2024-01-15T12:48:15;10.93;;;3.30;;
21416;SDS011;10869;52.238;10.716;2024-01-15T12:50:43;11.53;;;3.53;;
21416;SDS011;10869;52.238;10.716;2024-01-15T12:53:10;9.97;;;2.30;;
21416;SDS011;10869;52.238;10.716;2024-01-15T12:55:39;14.37;;;3.27;;
21416;SDS011;10869;52.238;10.716;2024-01-15T12:58:05;9.03;;;2.63;;
21416;SDS011;10869;52.238;10.716;2024-01-15T13:00:30;19.53;;;2.97;;
21416;SDS011;10869;52.238;10.716;2024-01-15T13:03:02;9.77;;;3.47;;
21416;SDS011;10869;52.238;10.716;2024-01-15T13:05:29;12.70;;;3.37;;
21416;SDS011;10869;52.238;10.716;2024-01-15T13:11:27;17.33;;;2.90;;
21416;SDS011;10869;52.238;10.716;2024-01-15T13:13:53;9.67;;;3.20;;
21416;SDS011;10869;52.238;10.716;2024-01-15T13:19:41;16.33;;;2.80;;
21416;SDS011;10869;52.238;10.716;2024-01-15T13:28:57;11.70;;;3.37;;
21416;SDS011;10869;52.238;10.716;2024-01-15T13:31:23;22.00;;;4.43;;
21416;SDS011;10869;52.238;10.716;2024-01-15T13:33:49;13.07;;;2.60;;
21416;SDS011;10869;52.238;10.716;2024-01-15T13:36:15;12.13;;;3.17;;
21416;SDS011;10869;52.238;10.716;2024-01-15T13:48:19;13.57;;;2.67;;
21416;SDS011;10869;52.238;10.716;2024-01-15T13:54:06;11.10;;;2.40;;
21416;SDS011;10869;52.238;10.716;2024-01-15T13:56:32;11.70;;;3.10;;
21416;SDS011;10869;52.238;10.716;2024-01-15T13:59:00;19.07;;;2.90;;
21416;SDS011;10869;52.238;10.716;2024-01-15T14:04:48;13.23;;;3.07;;
21416;SDS011;10869;52.238;10.716;2024-01-15T14:07:15;18.93;;;3.13;;
21416;SDS011;10869;52.238;10.716;2024-01-15T14:09:41;13.07;;;2.80;;
21416;SDS011;10869;52.238;10.716;2024-01-15T14:12:10;17.27;;;4.03;;
21416;SDS011;10869;52.238;10.716;2024-01-15T14:17:59;12.80;;;3.30;;
21416;SDS011;10869;52.238;10.716;2024-01-15T14:20:26;7.07;;;2.57;;
21416;SDS011;10869;52.238;10.716;2024-01-15T14:22:52;11.23;;;2.87;;
21416;SDS011;10869;52.238;10.716;2024-01-15T14:25:19;11.70;;;4.27;;
21416;SDS011;10869;52.238;10.716;2024-01-15T14:27:46;17.97;;;4.97;;
21416;SDS011;10869;52.238;10.716;2024-01-15T14:30:12;12.27;;;3.10;;
21416;SDS011;10869;52.238;10.716;2024-01-15T14:32:40;12.10;;;3.60;;
21416;SDS011;10869;52.238;10.716;2024-01-15T14:35:09;18.60;;;3.93;;
21416;SDS011;10869;52.238;10.716;2024-01-15T14:37:39;22.07;;;4.27;;
21416;SDS011;10869;52.238;10.716;2024-01-15T14:40:05;18.03;;;4.30;;
21416;SDS011;10869;52.238;10.716;2024-01-15T14:42:40;11.40;;;3.77;;
21416;SDS011;10869;52.238;10.716;2024-01-15T14:45:06;13.00;;;2.77;;
21416;SDS011;10869;52.238;10.716;2024-01-15T14:51:02;9.20;;;2.90;;
21416;SDS011;10869;52.238;10.716;2024-01-15T14:53:33;15.40;;;3.50;;
21416;SDS011;10869;52.238;10.716;2024-01-15T14:56:00;22.50;;;4.13;;
21416;SDS011;10869;52.238;10.716;2024-01-15T14:58:27;16.80;;;5.03;;
21416;SDS011;10869;52.238;10.716;2024-01-15T15:00:53;9.47;;;3.37;;
21416;SDS011;10869;52.238;10.716;2024-01-15T15:03:23;13.20;;;3.10;;
21416;SDS011;10869;52.238;10.716;2024-01-15T15:05:49;11.33;;;3.60;;
21416;SDS011;10869;52.238;10.716;2024-01-15T15:08:15;9.37;;;2.80;;
21416;SDS011;10869;52.238;10.716;2024-01-15T15:10:40;11.47;;;3.13;;
21416;SDS011;10869;52.238;10.716;2024-01-15T15:13:10;15.77;;;3.13;;
21416;SDS011;10869;52.238;10.716;2024-01-15T15:15:45;16.37;;;3.83;;
21416;SDS011;10869;52.238;10.716;2024-01-15T15:18:13;11.77;;;3.50;;
21416;SDS011;10869;52.238;10.716;2024-01-15T15:20:38;10.00;;;4.10;;
21416;SDS011;10869;52.238;10.716;2024-01-15T15:23:04;13.30;;;3.67;;
21416;SDS011;10869;52.238;10.716;2024-01-15T15:25:33;14.17;;;3.70;;
21416;SDS011;10869;52.238;10.716;2024-01-15T15:28:14;19.17;;;4.87;;
21416;SDS011;10869;52.238;10.716;2024-01-15T15:34:04;16.13;;;4.40;;
21416;SDS011;10869;52.238;10.716;2024-01-15T15:36:30;14.03;;;3.90;;
21416;SDS011;10869;52.238;10.716;2024-01-15T15:42:18;12.63;;;4.50;;
21416;SDS011;10869;52.238;10.716;2024-01-15T15:47:14;12.97;;;4.30;;
21416;SDS011;10869;52.238;10.716;2024-01-15T15:49:40;16.03;;;4.47;;
21416;SDS011;10869;52.238;10.716;2024-01-15T15:55:28;11.37;;;4.30;;
21416;SDS011;10869;52.238;10.716;2024-01-15T15:57:54;13.57;;;4.27;;
21416;SDS011;10869;52.238;10.716;2024-01-15T16:00:20;18.87;;;4.70;;
21416;SDS011;10869;52.238;10.716;2024-01-15T16:02:45;15.60;;;6.37;;
21416;SDS011;10869;52.238;10.716;2024-01-15T16:05:11;21.50;;;6.90;;